Station Historical Data
Daily Summary for February 20, 2012 Units:  Both    English   Metric
« Previous Day
Next Day »
Daily Weekly Monthly Yearly Custom
  High: Low: Average:
Temperature: 54.7 °F /  12.6 °C 27.0 °F /  -2.8 °C 40.4 °F /  4.7 °C
Dew Point: 36.2 °F /  2.3 °C 24.5 °F /  -4.2 °C 29.6 °F /  -1.3 °C
Humidity: 95% 34% 69%
Wind Speed: 12.0mph /  19.3km/h - 3.7mph /  6km/h
Wind Gust: 14.0mph /  22.5km/h - -
Wind- - ESE
Pressure: 30.26 in /  1024.6 hPa 30.09 in /  1018.8 hPa -
Precipitation: 0.00 in /  0 mm    
Historical Graphs
 
 
Tabular Data for February 20, 2012
Time Temperature Dew Point Pressure Wind Wind Speed Wind Gust Humidity Rainfall Rate (Hourly) Conditions
00:00 32.7 °F /  0.4 °C 29.8 °F /  -1.2 °C 30.12in /  1019.9hPa Calm     89% 0.00in /  0mm
00:01 32.7 °F /  0.4 °C 29.8 °F /  -1.2 °C 30.12in /  1019.9hPa Calm     89% 0.00in /  0mm
00:06 32.4 °F /  0.2 °C 29.8 °F /  -1.2 °C 30.12in /  1019.9hPa Calm     90% 0.00in /  0mm
00:11 32.1 °F /  0.1 °C 29.8 °F /  -1.2 °C 30.13in /  1020.2hPa Calm     91% 0.00in /  0mm
00:16 32.0 °F /  0 °C 29.9 °F /  -1.2 °C 30.13in /  1020.2hPa Calm     92% 0.00in /  0mm
00:21 31.8 °F /  -0.1 °C 29.8 °F /  -1.2 °C 30.13in /  1020.2hPa Calm     92% 0.00in /  0mm
00:26 31.5 °F /  -0.3 °C 29.5 °F /  -1.4 °C 30.14in /  1020.5hPa Calm     92% 0.00in /  0mm
00:31 31.5 °F /  -0.3 °C 29.7 °F /  -1.3 °C 30.14in /  1020.5hPa Calm     93% 0.00in /  0mm
00:36 31.5 °F /  -0.3 °C 29.7 °F /  -1.3 °C 30.14in /  1020.5hPa Calm     93% 0.00in /  0mm
00:41 31.3 °F /  -0.4 °C 29.2 °F /  -1.6 °C 30.15in /  1020.9hPa Calm     92% 0.00in /  0mm
00:46 30.8 °F /  -0.7 °C 28.8 °F /  -1.8 °C 30.15in /  1020.9hPa Calm     92% 0.00in /  0mm
00:51 30.3 °F /  -0.9 °C 28.5 °F /  -1.9 °C 30.14in /  1020.5hPa Calm     93% 0.00in /  0mm
00:56 30.4 °F /  -0.9 °C 28.9 °F /  -1.7 °C 30.14in /  1020.5hPa Calm     94% 0.00in /  0mm
01:01 30.1 °F /  -1.1 °C 28.3 °F /  -2.1 °C 30.15in /  1020.9hPa Calm     93% 0.00in /  0mm
01:06 30.3 °F /  -0.9 °C 28.8 °F /  -1.8 °C 30.14in /  1020.5hPa NNW 1.0mph /  1.6km/h 1.0mph /  1.6km/h 94% 0.00in /  0mm
01:11 30.8 °F /  -0.7 °C 29.3 °F /  -1.5 °C 30.15in /  1020.9hPa Calm   1.0mph /  1.6km/h 94% 0.00in /  0mm
01:16 30.8 °F /  -0.7 °C 29.3 °F /  -1.5 °C 30.15in /  1020.9hPa Calm   1.0mph /  1.6km/h 94% 0.00in /  0mm
01:21 30.7 °F /  -0.7 °C 28.9 °F /  -1.7 °C 30.15in /  1020.9hPa Calm     93% 0.00in /  0mm
01:26 30.6 °F /  -0.8 °C 28.8 °F /  -1.8 °C 30.14in /  1020.5hPa Calm     93% 0.00in /  0mm
01:31 30.7 °F /  -0.7 °C 28.9 °F /  -1.7 °C 30.14in /  1020.5hPa North 2.0mph /  3.2km/h 2.0mph /  3.2km/h 93% 0.00in /  0mm
01:36 30.8 °F /  -0.7 °C 29.0 °F /  -1.7 °C 30.14in /  1020.5hPa Calm   2.0mph /  3.2km/h 93% 0.00in /  0mm
01:41 30.8 °F /  -0.7 °C 29.0 °F /  -1.7 °C 30.14in /  1020.5hPa Calm     93% 0.00in /  0mm
01:46 30.9 °F /  -0.6 °C 29.1 °F /  -1.6 °C 30.15in /  1020.9hPa Calm     93% 0.00in /  0mm
01:51 30.9 °F /  -0.6 °C 28.9 °F /  -1.7 °C 30.15in /  1020.9hPa Calm     92% 0.00in /  0mm
01:56 30.8 °F /  -0.7 °C 28.8 °F /  -1.8 °C 30.15in /  1020.9hPa Calm     92% 0.00in /  0mm
02:01 31.1 °F /  -0.5 °C 29.0 °F /  -1.7 °C 30.14in /  1020.5hPa NNE 2.0mph /  3.2km/h 2.0mph /  3.2km/h 92% 0.00in /  0mm
02:06 31.4 °F /  -0.3 °C 29.1 °F /  -1.6 °C 30.15in /  1020.9hPa NNE 2.0mph /  3.2km/h 3.0mph /  4.8km/h 91% 0.00in /  0mm
02:11 31.6 °F /  -0.2 °C 29.0 °F /  -1.7 °C 30.15in /  1020.9hPa North 1.0mph /  1.6km/h 2.0mph /  3.2km/h 90% 0.00in /  0mm
02:16 31.5 °F /  -0.3 °C 28.9 °F /  -1.7 °C 30.15in /  1020.9hPa NNE 1.0mph /  1.6km/h 2.0mph /  3.2km/h 90% 0.00in /  0mm
02:21 31.4 °F /  -0.3 °C 28.5 °F /  -1.9 °C 30.15in /  1020.9hPa NNE 1.0mph /  1.6km/h 3.0mph /  4.8km/h 89% 0.00in /  0mm
02:26 31.5 °F /  -0.3 °C 28.6 °F /  -1.9 °C 30.14in /  1020.5hPa North 1.0mph /  1.6km/h 3.0mph /  4.8km/h 89% 0.00in /  0mm
02:32 31.4 °F /  -0.3 °C 28.5 °F /  -1.9 °C 30.15in /  1020.9hPa NNE 3.0mph /  4.8km/h 3.0mph /  4.8km/h 89% 0.00in /  0mm
02:37 31.4 °F /  -0.3 °C 28.5 °F /  -1.9 °C 30.14in /  1020.5hPa NNE 2.0mph /  3.2km/h 3.0mph /  4.8km/h 89% 0.00in /  0mm
02:42 31.4 °F /  -0.3 °C 28.5 °F /  -1.9 °C 30.14in /  1020.5hPa North 2.0mph /  3.2km/h 4.0mph /  6.4km/h 89% 0.00in /  0mm
02:47 31.3 °F /  -0.4 °C 28.4 °F /  -2 °C 30.14in /  1020.5hPa NNE 2.0mph /  3.2km/h 3.0mph /  4.8km/h 89% 0.00in /  0mm
02:52 31.2 °F /  -0.4 °C 28.3 °F /  -2.1 °C 30.14in /  1020.5hPa NNE 2.0mph /  3.2km/h 4.0mph /  6.4km/h 89% 0.00in /  0mm
02:57 31.0 °F /  -0.6 °C 28.1 °F /  -2.2 °C 30.14in /  1020.5hPa NNE 3.0mph /  4.8km/h 4.0mph /  6.4km/h 89% 0.00in /  0mm
03:02 30.8 °F /  -0.7 °C 28.0 °F /  -2.2 °C 30.14in /  1020.5hPa North 2.0mph /  3.2km/h 3.0mph /  4.8km/h 89% 0.00in /  0mm
03:07 30.7 °F /  -0.7 °C 27.9 °F /  -2.3 °C 30.14in /  1020.5hPa NNE 2.0mph /  3.2km/h 3.0mph /  4.8km/h 89% 0.00in /  0mm
03:12 30.6 °F /  -0.8 °C 27.8 °F /  -2.3 °C 30.14in /  1020.5hPa NNE 1.0mph /  1.6km/h 3.0mph /  4.8km/h 89% 0.00in /  0mm
03:17 30.6 °F /  -0.8 °C 27.8 °F /  -2.3 °C 30.14in /  1020.5hPa NNE 1.0mph /  1.6km/h 4.0mph /  6.4km/h 89% 0.00in /  0mm
03:22 30.4 °F /  -0.9 °C 27.5 °F /  -2.5 °C 30.14in /  1020.5hPa Calm   2.0mph /  3.2km/h 89% 0.00in /  0mm
03:27 30.2 °F /  -1 °C 27.4 °F /  -2.6 °C 30.15in /  1020.9hPa Calm   1.0mph /  1.6km/h 89% 0.00in /  0mm
03:32 30.0 °F /  -1.1 °C 27.4 °F /  -2.6 °C 30.15in /  1020.9hPa Calm     90% 0.00in /  0mm
03:37 29.8 °F /  -1.2 °C 27.2 °F /  -2.7 °C 30.15in /  1020.9hPa Calm     90% 0.00in /  0mm
03:42 29.6 °F /  -1.3 °C 27.0 °F /  -2.8 °C 30.16in /  1021.2hPa Calm     90% 0.00in /  0mm
03:47 29.2 °F /  -1.6 °C 26.9 °F /  -2.8 °C 30.16in /  1021.2hPa Calm     91% 0.00in /  0mm
03:52 29.0 °F /  -1.7 °C 26.7 °F /  -2.9 °C 30.16in /  1021.2hPa Calm     91% 0.00in /  0mm
03:57 28.8 °F /  -1.8 °C 26.8 °F /  -2.9 °C 30.17in /  1021.6hPa Calm     92% 0.00in /  0mm
04:02 28.8 °F /  -1.8 °C 27.0 °F /  -2.8 °C 30.17in /  1021.6hPa Calm     93% 0.00in /  0mm
04:07 28.6 °F /  -1.9 °C 26.8 °F /  -2.9 °C 30.17in /  1021.6hPa Calm     93% 0.00in /  0mm
04:12 28.4 °F /  -2 °C 26.6 °F /  -3 °C 30.18in /  1021.9hPa Calm     93% 0.00in /  0mm
04:17 28.4 °F /  -2 °C 26.9 °F /  -2.8 °C 30.18in /  1021.9hPa Calm     94% 0.00in /  0mm
04:22 28.1 °F /  -2.2 °C 26.3 °F /  -3.2 °C 30.18in /  1021.9hPa Calm     93% 0.00in /  0mm
04:27 27.6 °F /  -2.4 °C 25.8 °F /  -3.4 °C 30.19in /  1022.2hPa Calm     93% 0.00in /  0mm
04:32 27.4 °F /  -2.6 °C 25.9 °F /  -3.4 °C 30.19in /  1022.2hPa WSW 1.0mph /  1.6km/h 1.0mph /  1.6km/h 94% 0.00in /  0mm
04:38 27.3 °F /  -2.6 °C 25.8 °F /  -3.4 °C 30.19in /  1022.2hPa West 1.0mph /  1.6km/h 1.0mph /  1.6km/h 94% 0.00in /  0mm
04:43 27.3 °F /  -2.6 °C 25.8 °F /  -3.4 °C 30.20in /  1022.6hPa Calm   1.0mph /  1.6km/h 94% 0.00in /  0mm
04:48 27.1 °F /  -2.7 °C 25.6 °F /  -3.6 °C 30.20in /  1022.6hPa Calm     94% 0.00in /  0mm
04:53 27.0 °F /  -2.8 °C 25.5 °F /  -3.6 °C 30.21in /  1022.9hPa Calm   1.0mph /  1.6km/h 94% 0.00in /  0mm
04:58 27.0 °F /  -2.8 °C 25.5 °F /  -3.6 °C 30.21in /  1022.9hPa Calm     94% 0.00in /  0mm
05:03 27.1 °F /  -2.7 °C 25.9 °F /  -3.4 °C 30.21in /  1022.9hPa West 1.0mph /  1.6km/h 1.0mph /  1.6km/h 95% 0.00in /  0mm
05:08 27.2 °F /  -2.7 °C 26.0 °F /  -3.3 °C 30.22in /  1023.2hPa Calm   1.0mph /  1.6km/h 95% 0.00in /  0mm
05:13 27.1 °F /  -2.7 °C 25.9 °F /  -3.4 °C 30.22in /  1023.2hPa Calm     95% 0.00in /  0mm
05:18 27.0 °F /  -2.8 °C 25.5 °F /  -3.6 °C 30.22in /  1023.2hPa Calm     94% 0.00in /  0mm
05:23 27.0 °F /  -2.8 °C 25.8 °F /  -3.4 °C 30.22in /  1023.2hPa North 1.0mph /  1.6km/h 1.0mph /  1.6km/h 95% 0.00in /  0mm
05:28 27.1 °F /  -2.7 °C 25.9 °F /  -3.4 °C 30.22in /  1023.2hPa North 1.0mph /  1.6km/h 1.0mph /  1.6km/h 95% 0.00in /  0mm
05:33 27.2 °F /  -2.7 °C 26.0 °F /  -3.3 °C 30.22in /  1023.2hPa Calm   1.0mph /  1.6km/h 95% 0.00in /  0mm
05:38 27.2 °F /  -2.7 °C 26.0 °F /  -3.3 °C 30.22in /  1023.2hPa North 2.0mph /  3.2km/h 2.0mph /  3.2km/h 95% 0.00in /  0mm
05:43 27.4 °F /  -2.6 °C 26.2 °F /  -3.2 °C 30.22in /  1023.2hPa North 1.0mph /  1.6km/h 2.0mph /  3.2km/h 95% 0.00in /  0mm
05:48 27.4 °F /  -2.6 °C 25.9 °F /  -3.4 °C 30.23in /  1023.6hPa Calm   1.0mph /  1.6km/h 94% 0.00in /  0mm
05:53 27.3 °F /  -2.6 °C 25.8 °F /  -3.4 °C 30.22in /  1023.2hPa North 1.0mph /  1.6km/h 1.0mph /  1.6km/h 94% 0.00in /  0mm
05:58 27.5 °F /  -2.5 °C 26.0 °F /  -3.3 °C 30.23in /  1023.6hPa North 2.0mph /  3.2km/h 2.0mph /  3.2km/h 94% 0.00in /  0mm
06:03 27.6 °F /  -2.4 °C 26.1 °F /  -3.3 °C 30.23in /  1023.6hPa North 2.0mph /  3.2km/h 2.0mph /  3.2km/h 94% 0.00in /  0mm
06:08 27.7 °F /  -2.4 °C 26.2 °F /  -3.2 °C 30.24in /  1023.9hPa North 1.0mph /  1.6km/h 2.0mph /  3.2km/h 94% 0.00in /  0mm
06:13 27.6 °F /  -2.4 °C 25.8 °F /  -3.4 °C 30.24in /  1023.9hPa North 1.0mph /  1.6km/h 1.0mph /  1.6km/h 93% 0.00in /  0mm
06:18 27.7 °F /  -2.4 °C 25.9 °F /  -3.4 °C 30.24in /  1023.9hPa NNE 1.0mph /  1.6km/h 2.0mph /  3.2km/h 93% 0.00in /  0mm
06:23 27.7 °F /  -2.4 °C 25.9 °F /  -3.4 °C 30.24in /  1023.9hPa NNE 2.0mph /  3.2km/h 2.0mph /  3.2km/h 93% 0.00in /  0mm
06:28 27.9 °F /  -2.3 °C 26.1 °F /  -3.3 °C 30.24in /  1023.9hPa NNE 3.0mph /  4.8km/h 3.0mph /  4.8km/h 93% 0.00in /  0mm
06:33 28.2 °F /  -2.1 °C 26.2 °F /  -3.2 °C 30.23in /  1023.6hPa NNE 3.0mph /  4.8km/h 4.0mph /  6.4km/h 92% 0.00in /  0mm
06:38 28.3 °F /  -2.1 °C 26.3 °F /  -3.2 °C 30.24in /  1023.9hPa NE 2.0mph /  3.2km/h 3.0mph /  4.8km/h 92% 0.00in /  0mm
06:43 28.3 °F /  -2.1 °C 26.0 °F /  -3.3 °C 30.24in /  1023.9hPa NNE 3.0mph /  4.8km/h 3.0mph /  4.8km/h 91% 0.00in /  0mm
06:48 28.4 °F /  -2 °C 26.1 °F /  -3.3 °C 30.24in /  1023.9hPa NE 3.0mph /  4.8km/h 3.0mph /  4.8km/h 91% 0.00in /  0mm
06:53 28.2 °F /  -2.1 °C 25.9 °F /  -3.4 °C 30.24in /  1023.9hPa NNE 2.0mph /  3.2km/h 3.0mph /  4.8km/h 91% 0.00in /  0mm
06:58 28.2 °F /  -2.1 °C 25.9 °F /  -3.4 °C 30.24in /  1023.9hPa NNE 1.0mph /  1.6km/h 3.0mph /  4.8km/h 91% 0.00in /  0mm
07:03 28.1 °F /  -2.2 °C 25.8 °F /  -3.4 °C 30.24in /  1023.9hPa NNE 1.0mph /  1.6km/h 2.0mph /  3.2km/h 91% 0.00in /  0mm
07:08 28.0 °F /  -2.2 °C 25.7 °F /  -3.5 °C 30.25in /  1024.3hPa NNE 1.0mph /  1.6km/h 3.0mph /  4.8km/h 91% 0.00in /  0mm
07:13 28.0 °F /  -2.2 °C 25.7 °F /  -3.5 °C 30.25in /  1024.3hPa NNE 1.0mph /  1.6km/h 2.0mph /  3.2km/h 91% 0.00in /  0mm
07:18 27.8 °F /  -2.3 °C 25.5 °F /  -3.6 °C 30.25in /  1024.3hPa North 1.0mph /  1.6km/h 2.0mph /  3.2km/h 91% 0.00in /  0mm
07:23 27.5 °F /  -2.5 °C 25.2 °F /  -3.8 °C 30.25in /  1024.3hPa North 1.0mph /  1.6km/h 2.0mph /  3.2km/h 91% 0.00in /  0mm
07:28 27.2 °F /  -2.7 °C 24.9 °F /  -3.9 °C 30.25in /  1024.3hPa North 1.0mph /  1.6km/h 2.0mph /  3.2km/h 91% 0.00in /  0mm
07:33 27.2 °F /  -2.7 °C 25.2 °F /  -3.8 °C 30.25in /  1024.3hPa NNE 2.0mph /  3.2km/h 2.0mph /  3.2km/h 92% 0.00in /  0mm
07:38 27.3 °F /  -2.6 °C 25.3 °F /  -3.7 °C 30.25in /  1024.3hPa North 1.0mph /  1.6km/h 3.0mph /  4.8km/h 92% 0.00in /  0mm
07:43 27.4 °F /  -2.6 °C 25.4 °F /  -3.7 °C 30.26in /  1024.6hPa North 2.0mph /  3.2km/h 3.0mph /  4.8km/h 92% 0.00in /  0mm
07:48 27.5 °F /  -2.5 °C 25.5 °F /  -3.6 °C 30.26in /  1024.6hPa North 2.0mph /  3.2km/h 2.0mph /  3.2km/h 92% 0.00in /  0mm
07:53 27.6 °F /  -2.4 °C 25.6 °F /  -3.6 °C 30.26in /  1024.6hPa NNE 1.0mph /  1.6km/h 2.0mph /  3.2km/h 92% 0.00in /  0mm
07:58 27.9 °F /  -2.3 °C 25.9 °F /  -3.4 °C 30.26in /  1024.6hPa NNE 1.0mph /  1.6km/h 3.0mph /  4.8km/h 92% 0.00in /  0mm
08:03 28.3 °F /  -2.1 °C 26.0 °F /  -3.3 °C 30.25in /  1024.3hPa NNE 5.0mph /  8km/h 5.0mph /  8km/h 91% 0.00in /  0mm
08:08 28.7 °F /  -1.8 °C 26.4 °F /  -3.1 °C 30.25in /  1024.3hPa NNE 4.0mph /  6.4km/h 4.0mph /  6.4km/h 91% 0.00in /  0mm
08:13 28.9 °F /  -1.7 °C 26.3 °F /  -3.2 °C 30.25in /  1024.3hPa NNE 4.0mph /  6.4km/h 4.0mph /  6.4km/h 90% 0.00in /  0mm
08:19 29.3 °F /  -1.5 °C 26.7 °F /  -2.9 °C 30.25in /  1024.3hPa NE 5.0mph /  8km/h 6.0mph /  9.7km/h 90% 0.00in /  0mm
08:24 29.5 °F /  -1.4 °C 26.7 °F /  -2.9 °C 30.25in /  1024.3hPa NNE 3.0mph /  4.8km/h 5.0mph /  8km/h 89% 0.00in /  0mm
08:29 29.8 °F /  -1.2 °C 27.0 °F /  -2.8 °C 30.25in /  1024.3hPa NNE 3.0mph /  4.8km/h 6.0mph /  9.7km/h 89% 0.00in /  0mm
08:34 30.2 °F /  -1 °C 27.4 °F /  -2.6 °C 30.25in /  1024.3hPa NNE 3.0mph /  4.8km/h 8.0mph /  12.9km/h 89% 0.00in /  0mm
08:39 30.4 °F /  -0.9 °C 27.3 °F /  -2.6 °C 30.25in /  1024.3hPa NNE 5.0mph /  8km/h 8.0mph /  12.9km/h 88% 0.00in /  0mm
08:44 30.9 °F /  -0.6 °C 27.8 °F /  -2.3 °C 30.25in /  1024.3hPa NNE 5.0mph /  8km/h 11.0mph /  17.7km/h 88% 0.00in /  0mm
08:49 31.3 °F /  -0.4 °C 27.6 °F /  -2.4 °C 30.25in /  1024.3hPa ENE 6.0mph /  9.7km/h 11.0mph /  17.7km/h 86% 0.00in /  0mm
08:54 31.9 °F /  -0.1 °C 28.2 °F /  -2.1 °C 30.24in /  1023.9hPa NE 6.0mph /  9.7km/h 8.0mph /  12.9km/h 86% 0.00in /  0mm
08:59 32.5 °F /  0.3 °C 28.5 °F /  -1.9 °C 30.25in /  1024.3hPa NE 6.0mph /  9.7km/h 10.0mph /  16.1km/h 85% 0.00in /  0mm
09:04 32.9 °F /  0.5 °C 28.6 °F /  -1.9 °C 30.24in /  1023.9hPa NE 5.0mph /  8km/h 11.0mph /  17.7km/h 84% 0.00in /  0mm
09:09 33.1 °F /  0.6 °C 28.5 °F /  -1.9 °C 30.24in /  1023.9hPa NE 6.0mph /  9.7km/h 9.0mph /  14.5km/h 83% 0.00in /  0mm
09:14 33.3 °F /  0.7 °C 28.7 °F /  -1.8 °C 30.24in /  1023.9hPa North 7.0mph /  11.3km/h 12.0mph /  19.3km/h 83% 0.00in /  0mm
09:19 33.6 °F /  0.9 °C 29.3 °F /  -1.5 °C 30.24in /  1023.9hPa NNE 4.0mph /  6.4km/h 11.0mph /  17.7km/h 84% 0.00in /  0mm
09:24 33.7 °F /  0.9 °C 29.1 °F /  -1.6 °C 30.24in /  1023.9hPa NE 6.0mph /  9.7km/h 12.0mph /  19.3km/h 83% 0.00in /  0mm
09:29 33.9 °F /  1.1 °C 29.0 °F /  -1.7 °C 30.24in /  1023.9hPa NE 8.0mph /  12.9km/h 11.0mph /  17.7km/h 82% 0.00in /  0mm
09:34 34.3 °F /  1.3 °C 29.7 °F /  -1.3 °C 30.24in /  1023.9hPa NE 6.0mph /  9.7km/h 9.0mph /  14.5km/h 83% 0.00in /  0mm
09:39 34.6 °F /  1.4 °C 29.4 °F /  -1.4 °C 30.24in /  1023.9hPa East 6.0mph /  9.7km/h 13.0mph /  20.9km/h 81% 0.00in /  0mm
09:44 34.9 °F /  1.6 °C 30.0 °F /  -1.1 °C 30.24in /  1023.9hPa NE 7.0mph /  11.3km/h 12.0mph /  19.3km/h 82% 0.00in /  0mm
09:49 35.3 °F /  1.8 °C 29.8 °F /  -1.2 °C 30.25in /  1024.3hPa ENE 7.0mph /  11.3km/h 10.0mph /  16.1km/h 80% 0.00in /  0mm
09:54 35.7 °F /  2.1 °C 30.5 °F /  -0.8 °C 30.25in /  1024.3hPa NE 6.0mph /  9.7km/h 12.0mph /  19.3km/h 81% 0.00in /  0mm
09:59 36.3 °F /  2.4 °C 30.4 °F /  -0.9 °C 30.24in /  1023.9hPa East 9.0mph /  14.5km/h 10.0mph /  16.1km/h 79% 0.00in /  0mm
10:04 36.5 °F /  2.5 °C 30.3 °F /  -0.9 °C 30.24in /  1023.9hPa East 9.0mph /  14.5km/h 12.0mph /  19.3km/h 78% 0.00in /  0mm
10:09 36.8 °F /  2.7 °C 30.6 °F /  -0.8 °C 30.24in /  1023.9hPa NNE 11.0mph /  17.7km/h 11.0mph /  17.7km/h 78% 0.00in /  0mm
10:14 37.2 °F /  2.9 °C 30.7 °F /  -0.7 °C 30.24in /  1023.9hPa ENE 7.0mph /  11.3km/h 10.0mph /  16.1km/h 77% 0.00in /  0mm
10:19 37.4 °F /  3 °C 29.9 °F /  -1.2 °C 30.24in /  1023.9hPa NE 9.0mph /  14.5km/h 13.0mph /  20.9km/h 74% 0.00in /  0mm
10:24 37.7 °F /  3.2 °C 30.5 °F /  -0.8 °C 30.24in /  1023.9hPa NE 7.0mph /  11.3km/h 13.0mph /  20.9km/h 75% 0.00in /  0mm
10:29 38.1 °F /  3.4 °C 31.2 °F /  -0.4 °C 30.24in /  1023.9hPa ESE 4.0mph /  6.4km/h 8.0mph /  12.9km/h 76% 0.00in /  0mm
10:34 38.6 °F /  3.7 °C 31.0 °F /  -0.6 °C 30.24in /  1023.9hPa NE 3.0mph /  4.8km/h 10.0mph /  16.1km/h 74% 0.00in /  0mm
10:39 39.3 °F /  4.1 °C 31.4 °F /  -0.3 °C 30.24in /  1023.9hPa ENE 8.0mph /  12.9km/h 8.0mph /  12.9km/h 73% 0.00in /  0mm
10:44 39.5 °F /  4.2 °C 30.9 °F /  -0.6 °C 30.24in /  1023.9hPa East 3.0mph /  4.8km/h 12.0mph /  19.3km/h 71% 0.00in /  0mm
10:49 40.2 °F /  4.6 °C 31.6 °F /  -0.2 °C 30.24in /  1023.9hPa NE 4.0mph /  6.4km/h 11.0mph /  17.7km/h 71% 0.00in /  0mm
10:54 40.5 °F /  4.7 °C 30.0 °F /  -1.1 °C 30.24in /  1023.9hPa NE 8.0mph /  12.9km/h 9.0mph /  14.5km/h 66% 0.00in /  0mm
10:59 40.6 °F /  4.8 °C 30.5 °F /  -0.8 °C 30.24in /  1023.9hPa East 5.0mph /  8km/h 10.0mph /  16.1km/h 67% 0.00in /  0mm
11:04 41.0 °F /  5 °C 30.1 °F /  -1.1 °C 30.24in /  1023.9hPa NE 7.0mph /  11.3km/h 8.0mph /  12.9km/h 65% 0.00in /  0mm
11:09 41.3 °F /  5.2 °C 28.9 °F /  -1.7 °C 30.25in /  1024.3hPa NE 5.0mph /  8km/h 9.0mph /  14.5km/h 61% 0.00in /  0mm
11:14 41.9 °F /  5.5 °C 29.9 °F /  -1.2 °C 30.25in /  1024.3hPa NE 6.0mph /  9.7km/h 8.0mph /  12.9km/h 62% 0.00in /  0mm
11:19 42.1 °F /  5.6 °C 28.4 °F /  -2 °C 30.25in /  1024.3hPa ENE 4.0mph /  6.4km/h 12.0mph /  19.3km/h 58% 0.00in /  0mm
11:24 42.7 °F /  5.9 °C 29.0 °F /  -1.7 °C 30.25in /  1024.3hPa ESE 5.0mph /  8km/h 8.0mph /  12.9km/h 58% 0.00in /  0mm
11:29 43.2 °F /  6.2 °C 27.7 °F /  -2.4 °C 30.25in /  1024.3hPa North 4.0mph /  6.4km/h 10.0mph /  16.1km/h 54% 0.00in /  0mm
11:34 43.1 °F /  6.2 °C 28.0 °F /  -2.2 °C 30.25in /  1024.3hPa North 6.0mph /  9.7km/h 9.0mph /  14.5km/h 55% 0.00in /  0mm
11:39 43.6 °F /  6.4 °C 28.5 °F /  -1.9 °C 30.26in /  1024.6hPa ENE 2.0mph /  3.2km/h 7.0mph /  11.3km/h 55% 0.00in /  0mm
11:44 43.9 °F /  6.6 °C 27.4 °F /  -2.6 °C 30.26in /  1024.6hPa ENE 5.0mph /  8km/h 11.0mph /  17.7km/h 52% 0.00in /  0mm
11:50 44.3 °F /  6.8 °C 27.8 °F /  -2.3 °C 30.26in /  1024.6hPa ENE 2.0mph /  3.2km/h 6.0mph /  9.7km/h 52% 0.00in /  0mm
11:55 44.7 °F /  7.1 °C 30.0 °F /  -1.1 °C 30.26in /  1024.6hPa NE 2.0mph /  3.2km/h 9.0mph /  14.5km/h 56% 0.00in /  0mm
12:00 45.1 °F /  7.3 °C 28.5 °F /  -1.9 °C 30.26in /  1024.6hPa ESE 4.0mph /  6.4km/h 6.0mph /  9.7km/h 52% 0.00in /  0mm
12:05 45.2 °F /  7.3 °C 29.1 °F /  -1.6 °C 30.26in /  1024.6hPa NNE 5.0mph /  8km/h 5.0mph /  8km/h 53% 0.00in /  0mm
12:10 45.8 °F /  7.7 °C 29.2 °F /  -1.6 °C 30.26in /  1024.6hPa NE 6.0mph /  9.7km/h 8.0mph /  12.9km/h 52% 0.00in /  0mm
12:15 45.9 °F /  7.7 °C 27.3 °F /  -2.6 °C 30.26in /  1024.6hPa ESE 2.0mph /  3.2km/h 5.0mph /  8km/h 48% 0.00in /  0mm
12:20 46.5 °F /  8.1 °C 29.4 °F /  -1.4 °C 30.25in /  1024.3hPa NE 3.0mph /  4.8km/h 6.0mph /  9.7km/h 51% 0.00in /  0mm
12:25 46.6 °F /  8.1 °C 29.0 °F /  -1.7 °C 30.25in /  1024.3hPa NNE 4.0mph /  6.4km/h 6.0mph /  9.7km/h 50% 0.00in /  0mm
12:30 46.9 °F /  8.3 °C 30.2 °F /  -1 °C 30.25in /  1024.3hPa ESE 2.0mph /  3.2km/h 5.0mph /  8km/h 52% 0.00in /  0mm
12:35 47.5 °F /  8.6 °C 28.3 °F /  -2.1 °C 30.25in /  1024.3hPa ENE 5.0mph /  8km/h 5.0mph /  8km/h 47% 0.00in /  0mm
12:40 47.9 °F /  8.8 °C 29.2 °F /  -1.6 °C 30.25in /  1024.3hPa ENE 2.0mph /  3.2km/h 5.0mph /  8km/h 48% 0.00in /  0mm
12:45 48.3 °F /  9.1 °C 29.0 °F /  -1.7 °C 30.25in /  1024.3hPa ENE 5.0mph /  8km/h 7.0mph /  11.3km/h 47% 0.00in /  0mm
12:50 48.5 °F /  9.2 °C 25.9 °F /  -3.4 °C 30.24in /  1023.9hPa SE 4.0mph /  6.4km/h 6.0mph /  9.7km/h 41% 0.00in /  0mm
12:55 48.9 °F /  9.4 °C 25.7 °F /  -3.5 °C 30.24in /  1023.9hPa ENE 4.0mph /  6.4km/h 5.0mph /  8km/h 40% 0.00in /  0mm
13:00 49.1 °F /  9.5 °C 25.8 °F /  -3.4 °C 30.24in /  1023.9hPa ESE 4.0mph /  6.4km/h 8.0mph /  12.9km/h 40% 0.00in /  0mm
13:05 49.2 °F /  9.6 °C 25.3 °F /  -3.7 °C 30.23in /  1023.6hPa ESE 2.0mph /  3.2km/h 8.0mph /  12.9km/h 39% 0.00in /  0mm
13:10 49.5 °F /  9.7 °C 25.0 °F /  -3.9 °C 30.23in /  1023.6hPa NE 6.0mph /  9.7km/h 7.0mph /  11.3km/h 38% 0.00in /  0mm
13:15 49.7 °F /  9.8 °C 27.6 °F /  -2.4 °C 30.23in /  1023.6hPa NE 2.0mph /  3.2km/h 4.0mph /  6.4km/h 42% 0.00in /  0mm
13:20 50.6 °F /  10.3 °C 27.2 °F /  -2.7 °C 30.23in /  1023.6hPa East 6.0mph /  9.7km/h 6.0mph /  9.7km/h 40% 0.00in /  0mm
13:25 50.8 °F /  10.4 °C 25.5 °F /  -3.6 °C 30.22in /  1023.2hPa East 8.0mph /  12.9km/h 8.0mph /  12.9km/h 37% 0.00in /  0mm
13:30 50.9 °F /  10.5 °C 26.8 °F /  -2.9 °C 30.22in /  1023.2hPa East 5.0mph /  8km/h 5.0mph /  8km/h 39% 0.00in /  0mm
13:35 51.2 °F /  10.7 °C 27.1 °F /  -2.7 °C 30.22in /  1023.2hPa SE 7.0mph /  11.3km/h 11.0mph /  17.7km/h 39% 0.00in /  0mm
13:36 51.3 °F /  10.7 °C 29.0 °F /  -1.7 °C 30.22in /  1023.2hPa SE 5.0mph /  8km/h 11.0mph /  17.7km/h 42% 0.00in /  0mm
13:41 51.4 °F /  10.8 °C 27.3 °F /  -2.6 °C 30.22in /  1023.2hPa South 3.0mph /  4.8km/h 5.0mph /  8km/h 39% 0.00in /  0mm
13:47 51.6 °F /  10.9 °C 27.5 °F /  -2.5 °C 30.22in /  1023.2hPa SE 3.0mph /  4.8km/h 7.0mph /  11.3km/h 39% 0.00in /  0mm
13:52 51.9 °F /  11.1 °C 26.5 °F /  -3.1 °C 30.21in /  1022.9hPa SE 7.0mph /  11.3km/h 8.0mph /  12.9km/h 37% 0.00in /  0mm
13:57 52.0 °F /  11.1 °C 24.5 °F /  -4.2 °C 30.21in /  1022.9hPa ESE 4.0mph /  6.4km/h 9.0mph /  14.5km/h 34% 0.00in /  0mm
14:02 52.2 °F /  11.2 °C 26.1 °F /  -3.3 °C 30.21in /  1022.9hPa ESE 12.0mph /  19.3km/h 12.0mph /  19.3km/h 36% 0.00in /  0mm
14:07 52.0 °F /  11.1 °C 24.5 °F /  -4.2 °C 30.20in /  1022.6hPa SE 5.0mph /  8km/h 7.0mph /  11.3km/h 34% 0.00in /  0mm
14:12 52.2 °F /  11.2 °C 26.7 °F /  -2.9 °C 30.20in /  1022.6hPa ESE 9.0mph /  14.5km/h 12.0mph /  19.3km/h 37% 0.00in /  0mm
14:17 52.1 °F /  11.2 °C 25.3 °F /  -3.7 °C 30.20in /  1022.6hPa ESE 7.0mph /  11.3km/h 13.0mph /  20.9km/h 35% 0.00in /  0mm
14:22 51.8 °F /  11 °C 25.0 °F /  -3.9 °C 30.20in /  1022.6hPa NE 4.0mph /  6.4km/h 10.0mph /  16.1km/h 35% 0.00in /  0mm
14:27 52.3 °F /  11.3 °C 26.8 °F /  -2.9 °C 30.20in /  1022.6hPa ESE 9.0mph /  14.5km/h 10.0mph /  16.1km/h 37% 0.00in /  0mm
14:32 52.2 °F /  11.2 °C 25.4 °F /  -3.7 °C 30.20in /  1022.6hPa SSE 7.0mph /  11.3km/h 11.0mph /  17.7km/h 35% 0.00in /  0mm
14:37 52.5 °F /  11.4 °C 26.3 °F /  -3.2 °C 30.20in /  1022.6hPa SE 9.0mph /  14.5km/h 11.0mph /  17.7km/h 36% 0.00in /  0mm
14:42 52.6 °F /  11.4 °C 27.1 °F /  -2.7 °C 30.20in /  1022.6hPa ESE 7.0mph /  11.3km/h 9.0mph /  14.5km/h 37% 0.00in /  0mm
14:47 52.4 °F /  11.3 °C 27.6 °F /  -2.4 °C 30.20in /  1022.6hPa SSE 1.0mph /  1.6km/h 4.0mph /  6.4km/h 38% 0.00in /  0mm
14:52 53.3 °F /  11.8 °C 31.4 °F /  -0.3 °C 30.20in /  1022.6hPa SSE 4.0mph /  6.4km/h 10.0mph /  16.1km/h 43% 0.00in /  0mm
14:57 53.2 °F /  11.8 °C 29.5 °F /  -1.4 °C 30.20in /  1022.6hPa SE 2.0mph /  3.2km/h 7.0mph /  11.3km/h 40% 0.00in /  0mm
15:02 53.4 °F /  11.9 °C 29.7 °F /  -1.3 °C 30.19in /  1022.2hPa SSE 7.0mph /  11.3km/h 7.0mph /  11.3km/h 40% 0.00in /  0mm
15:07 53.7 °F /  12.1 °C 29.4 °F /  -1.4 °C 30.19in /  1022.2hPa South 6.0mph /  9.7km/h 12.0mph /  19.3km/h 39% 0.00in /  0mm
15:12 53.8 °F /  12.1 °C 30.7 °F /  -0.7 °C 30.19in /  1022.2hPa SSE 6.0mph /  9.7km/h 8.0mph /  12.9km/h 41% 0.00in /  0mm
15:17 53.9 °F /  12.2 °C 31.4 °F /  -0.3 °C 30.19in /  1022.2hPa ESE 5.0mph /  8km/h 9.0mph /  14.5km/h 42% 0.00in /  0mm
15:22 54.3 °F /  12.4 °C 31.1 °F /  -0.5 °C 30.19in /  1022.2hPa SE 6.0mph /  9.7km/h 8.0mph /  12.9km/h 41% 0.00in /  0mm
15:27 54.0 °F /  12.2 °C 30.2 °F /  -1 °C 30.19in /  1022.2hPa ESE 8.0mph /  12.9km/h 8.0mph /  12.9km/h 40% 0.00in /  0mm
15:32 53.9 °F /  12.2 °C 31.4 °F /  -0.3 °C 30.19in /  1022.2hPa South 6.0mph /  9.7km/h 10.0mph /  16.1km/h 42% 0.00in /  0mm
15:37 54.1 °F /  12.3 °C 28.4 °F /  -2 °C 30.19in /  1022.2hPa SE 5.0mph /  8km/h 9.0mph /  14.5km/h 37% 0.00in /  0mm
15:42 54.0 °F /  12.2 °C 30.9 °F /  -0.6 °C 30.18in /  1021.9hPa SE 4.0mph /  6.4km/h 9.0mph /  14.5km/h 41% 0.00in /  0mm
15:47 54.5 °F /  12.5 °C 29.4 °F /  -1.4 °C 30.18in /  1021.9hPa SSE 5.0mph /  8km/h 11.0mph /  17.7km/h 38% 0.00in /  0mm
15:52 54.3 °F /  12.4 °C 27.9 °F /  -2.3 °C 30.18in /  1021.9hPa East 7.0mph /  11.3km/h 12.0mph /  19.3km/h 36% 0.00in /  0mm
15:57 54.2 °F /  12.3 °C 30.4 °F /  -0.9 °C 30.18in /  1021.9hPa SE 9.0mph /  14.5km/h 11.0mph /  17.7km/h 40% 0.00in /  0mm
16:03 54.2 °F /  12.3 °C 28.5 °F /  -1.9 °C 30.18in /  1021.9hPa ESE 9.0mph /  14.5km/h 9.0mph /  14.5km/h 37% 0.00in /  0mm
16:08 54.1 °F /  12.3 °C 29.1 °F /  -1.6 °C 30.18in /  1021.9hPa SE 7.0mph /  11.3km/h 9.0mph /  14.5km/h 38% 0.00in /  0mm
16:13 54.7 °F /  12.6 °C 31.5 °F /  -0.3 °C 30.17in /  1021.6hPa SSE 5.0mph /  8km/h 8.0mph /  12.9km/h 41% 0.00in /  0mm
16:18 54.7 °F /  12.6 °C 30.9 °F /  -0.6 °C 30.17in /  1021.6hPa SE 10.0mph /  16.1km/h 10.0mph /  16.1km/h 40% 0.00in /  0mm
16:23 54.5 °F /  12.5 °C 31.3 °F /  -0.4 °C 30.17in /  1021.6hPa SE 8.0mph /  12.9km/h 11.0mph /  17.7km/h 41% 0.00in /  0mm
16:28 54.4 °F /  12.4 °C 31.2 °F /  -0.4 °C 30.17in /  1021.6hPa SSE 8.0mph /  12.9km/h 10.0mph /  16.1km/h 41% 0.00in /  0mm
16:33 54.3 °F /  12.4 °C 30.5 °F /  -0.8 °C 30.16in /  1021.2hPa SE 8.0mph /  12.9km/h 9.0mph /  14.5km/h 40% 0.00in /  0mm
16:38 54.3 °F /  12.4 °C 31.7 °F /  -0.2 °C 30.17in /  1021.6hPa ESE 6.0mph /  9.7km/h 10.0mph /  16.1km/h 42% 0.00in /  0mm
16:43 54.1 °F /  12.3 °C 30.3 °F /  -0.9 °C 30.16in /  1021.2hPa SE 6.0mph /  9.7km/h 8.0mph /  12.9km/h 40% 0.00in /  0mm
16:48 54.0 °F /  12.2 °C 29.6 °F /  -1.3 °C 30.15in /  1020.9hPa SE 8.0mph /  12.9km/h 13.0mph /  20.9km/h 39% 0.00in /  0mm
16:53 53.8 °F /  12.1 °C 29.4 °F /  -1.4 °C 30.15in /  1020.9hPa ESE 7.0mph /  11.3km/h 11.0mph /  17.7km/h 39% 0.00in /  0mm
16:58 53.9 °F /  12.2 °C 30.1 °F /  -1.1 °C 30.15in /  1020.9hPa ESE 9.0mph /  14.5km/h 11.0mph /  17.7km/h 40% 0.00in /  0mm
17:03 54.0 °F /  12.2 °C 30.2 °F /  -1 °C 30.15in /  1020.9hPa SE 8.0mph /  12.9km/h 9.0mph /  14.5km/h 40% 0.00in /  0mm
17:08 53.7 °F /  12.1 °C 31.2 °F /  -0.4 °C 30.15in /  1020.9hPa SE 5.0mph /  8km/h 10.0mph /  16.1km/h 42% 0.00in /  0mm
17:13 53.4 °F /  11.9 °C 30.3 °F /  -0.9 °C 30.15in /  1020.9hPa SE 11.0mph /  17.7km/h 13.0mph /  20.9km/h 41% 0.00in /  0mm
17:18 53.3 °F /  11.8 °C 31.4 °F /  -0.3 °C 30.15in /  1020.9hPa ESE 10.0mph /  16.1km/h 14.0mph /  22.5km/h 43% 0.00in /  0mm
17:23 53.3 °F /  11.8 °C 30.8 °F /  -0.7 °C 30.15in /  1020.9hPa SSE 5.0mph /  8km/h 11.0mph /  17.7km/h 42% 0.00in /  0mm
17:28 53.3 °F /  11.8 °C 32.0 °F /  0 °C 30.15in /  1020.9hPa SE 5.0mph /  8km/h 12.0mph /  19.3km/h 44% 0.00in /  0mm
17:33 53.2 °F /  11.8 °C 31.9 °F /  -0.1 °C 30.15in /  1020.9hPa South 9.0mph /  14.5km/h 11.0mph /  17.7km/h 44% 0.00in /  0mm
17:38 53.1 °F /  11.7 °C 32.9 °F /  0.5 °C 30.15in /  1020.9hPa SE 6.0mph /  9.7km/h 11.0mph /  17.7km/h 46% 0.00in /  0mm
17:43 52.8 °F /  11.6 °C 32.6 °F /  0.3 °C 30.15in /  1020.9hPa SE 6.0mph /  9.7km/h 11.0mph /  17.7km/h 46% 0.00in /  0mm
17:48 52.6 °F /  11.4 °C 32.4 °F /  0.2 °C 30.15in /  1020.9hPa SE 6.0mph /  9.7km/h 9.0mph /  14.5km/h 46% 0.00in /  0mm
17:53 52.4 °F /  11.3 °C 33.3 °F /  0.7 °C 30.15in /  1020.9hPa SE 4.0mph /  6.4km/h 8.0mph /  12.9km/h 48% 0.00in /  0mm
17:58 52.3 °F /  11.3 °C 32.7 °F /  0.4 °C 30.15in /  1020.9hPa SE 6.0mph /  9.7km/h 9.0mph /  14.5km/h 47% 0.00in /  0mm
18:04 52.2 °F /  11.2 °C 33.1 °F /  0.6 °C 30.15in /  1020.9hPa SSE 3.0mph /  4.8km/h 9.0mph /  14.5km/h 48% 0.00in /  0mm
18:09 52.1 °F /  11.2 °C 33.5 °F /  0.8 °C 30.15in /  1020.9hPa SE 3.0mph /  4.8km/h 6.0mph /  9.7km/h 49% 0.00in /  0mm
18:14 51.9 °F /  11.1 °C 33.4 °F /  0.8 °C 30.15in /  1020.9hPa SE 3.0mph /  4.8km/h 7.0mph /  11.3km/h 49% 0.00in /  0mm
18:19 51.6 °F /  10.9 °C 33.6 °F /  0.9 °C 30.15in /  1020.9hPa SE 2.0mph /  3.2km/h 5.0mph /  8km/h 50% 0.00in /  0mm
18:24 51.2 °F /  10.7 °C 33.7 °F /  0.9 °C 30.14in /  1020.5hPa SE 3.0mph /  4.8km/h 4.0mph /  6.4km/h 51% 0.00in /  0mm
18:29 50.7 °F /  10.4 °C 33.2 °F /  0.7 °C 30.14in /  1020.5hPa SE 3.0mph /  4.8km/h 5.0mph /  8km/h 51% 0.00in /  0mm
18:34 50.2 °F /  10.1 °C 33.3 °F /  0.7 °C 30.14in /  1020.5hPa ESE 3.0mph /  4.8km/h 4.0mph /  6.4km/h 52% 0.00in /  0mm
18:39 49.7 °F /  9.8 °C 33.3 °F /  0.7 °C 30.14in /  1020.5hPa ESE 3.0mph /  4.8km/h 4.0mph /  6.4km/h 53% 0.00in /  0mm
18:44 49.1 °F /  9.5 °C 33.2 °F /  0.7 °C 30.14in /  1020.5hPa ESE 3.0mph /  4.8km/h 3.0mph /  4.8km/h 54% 0.00in /  0mm
18:49 48.6 °F /  9.2 °C 33.2 °F /  0.7 °C 30.14in /  1020.5hPa ESE 2.0mph /  3.2km/h 3.0mph /  4.8km/h 55% 0.00in /  0mm
18:54 48.3 °F /  9.1 °C 33.3 °F /  0.7 °C 30.14in /  1020.5hPa ESE 2.0mph /  3.2km/h 2.0mph /  3.2km/h 56% 0.00in /  0mm
18:59 48.0 °F /  8.9 °C 33.5 °F /  0.8 °C 30.14in /  1020.5hPa ESE 2.0mph /  3.2km/h 3.0mph /  4.8km/h 57% 0.00in /  0mm
19:04 47.7 °F /  8.7 °C 33.2 °F /  0.7 °C 30.13in /  1020.2hPa ESE 3.0mph /  4.8km/h 3.0mph /  4.8km/h 57% 0.00in /  0mm
19:09 47.5 °F /  8.6 °C 33.5 °F /  0.8 °C 30.13in /  1020.2hPa ESE 3.0mph /  4.8km/h 4.0mph /  6.4km/h 58% 0.00in /  0mm
19:14 47.5 °F /  8.6 °C 33.5 °F /  0.8 °C 30.12in /  1019.9hPa East 3.0mph /  4.8km/h 4.0mph /  6.4km/h 58% 0.00in /  0mm
19:19 47.1 °F /  8.4 °C 33.5 °F /  0.8 °C 30.12in /  1019.9hPa ESE 3.0mph /  4.8km/h 4.0mph /  6.4km/h 59% 0.00in /  0mm
19:24 46.9 °F /  8.3 °C 33.8 °F /  1 °C 30.12in /  1019.9hPa ESE 4.0mph /  6.4km/h 5.0mph /  8km/h 60% 0.00in /  0mm
19:29 46.5 °F /  8.1 °C 33.8 °F /  1 °C 30.11in /  1019.5hPa ESE 5.0mph /  8km/h 6.0mph /  9.7km/h 61% 0.00in /  0mm
19:34 46.5 °F /  8.1 °C 33.8 °F /  1 °C 30.11in /  1019.5hPa East 4.0mph /  6.4km/h 5.0mph /  8km/h 61% 0.00in /  0mm
19:39 46.6 °F /  8.1 °C 33.9 °F /  1.1 °C 30.11in /  1019.5hPa ESE 5.0mph /  8km/h 6.0mph /  9.7km/h 61% 0.00in /  0mm
19:44 46.2 °F /  7.9 °C 33.9 °F /  1.1 °C 30.10in /  1019.2hPa East 6.0mph /  9.7km/h 6.0mph /  9.7km/h 62% 0.00in /  0mm
19:49 45.9 °F /  7.7 °C 34.0 °F /  1.1 °C 30.10in /  1019.2hPa ESE 7.0mph /  11.3km/h 7.0mph /  11.3km/h 63% 0.00in /  0mm
19:54 45.8 °F /  7.7 °C 33.9 °F /  1.1 °C 30.10in /  1019.2hPa ESE 4.0mph /  6.4km/h 8.0mph /  12.9km/h 63% 0.00in /  0mm
19:59 45.7 °F /  7.6 °C 33.8 °F /  1 °C 30.10in /  1019.2hPa ESE 4.0mph /  6.4km/h 6.0mph /  9.7km/h 63% 0.00in /  0mm
20:04 45.9 °F /  7.7 °C 34.0 °F /  1.1 °C 30.10in /  1019.2hPa ESE 4.0mph /  6.4km/h 6.0mph /  9.7km/h 63% 0.00in /  0mm
20:09 46.1 °F /  7.8 °C 34.2 °F /  1.2 °C 30.10in /  1019.2hPa ESE 4.0mph /  6.4km/h 5.0mph /  8km/h 63% 0.00in /  0mm
20:14 46.1 °F /  7.8 °C 33.8 °F /  1 °C 30.10in /  1019.2hPa SE 3.0mph /  4.8km/h 5.0mph /  8km/h 62% 0.00in /  0mm
20:19 46.2 °F /  7.9 °C 33.9 °F /  1.1 °C 30.10in /  1019.2hPa SE 4.0mph /  6.4km/h 7.0mph /  11.3km/h 62% 0.00in /  0mm
20:24 46.3 °F /  7.9 °C 34.0 °F /  1.1 °C 30.10in /  1019.2hPa SE 5.0mph /  8km/h 6.0mph /  9.7km/h 62% 0.00in /  0mm
20:29 46.7 °F /  8.2 °C 34.0 °F /  1.1 °C 30.10in /  1019.2hPa SSE 4.0mph /  6.4km/h 7.0mph /  11.3km/h 61% 0.00in /  0mm
20:34 46.5 °F /  8.1 °C 33.8 °F /  1 °C 30.10in /  1019.2hPa SE 4.0mph /  6.4km/h 6.0mph /  9.7km/h 61% 0.00in /  0mm
20:39 46.4 °F /  8 °C 33.7 °F /  0.9 °C 30.10in /  1019.2hPa SE 3.0mph /  4.8km/h 6.0mph /  9.7km/h 61% 0.00in /  0mm
20:44 46.3 °F /  7.9 °C 33.6 °F /  0.9 °C 30.10in /  1019.2hPa SE 4.0mph /  6.4km/h 5.0mph /  8km/h 61% 0.00in /  0mm
20:49 46.0 °F /  7.8 °C 33.7 °F /  0.9 °C 30.09in /  1018.8hPa ESE 5.0mph /  8km/h 5.0mph /  8km/h 62% 0.00in /  0mm
20:54 45.9 °F /  7.7 °C 33.6 °F /  0.9 °C 30.09in /  1018.8hPa SSE 5.0mph /  8km/h 7.0mph /  11.3km/h 62% 0.00in /  0mm
20:59 45.8 °F /  7.7 °C 33.5 °F /  0.8 °C 30.09in /  1018.8hPa SSE 3.0mph /  4.8km/h 5.0mph /  8km/h 62% 0.00in /  0mm
21:04 45.6 °F /  7.6 °C 33.3 °F /  0.7 °C 30.09in /  1018.8hPa SE 4.0mph /  6.4km/h 7.0mph /  11.3km/h 62% 0.00in /  0mm
21:09 46.0 °F /  7.8 °C 33.7 °F /  0.9 °C 30.09in /  1018.8hPa SE 4.0mph /  6.4km/h 7.0mph /  11.3km/h 62% 0.00in /  0mm
21:15 46.3 °F /  7.9 °C 33.6 °F /  0.9 °C 30.09in /  1018.8hPa SE 5.0mph /  8km/h 6.0mph /  9.7km/h 61% 0.00in /  0mm
21:20 46.3 °F /  7.9 °C 33.6 °F /  0.9 °C 30.09in /  1018.8hPa SSE 4.0mph /  6.4km/h 7.0mph /  11.3km/h 61% 0.00in /  0mm
21:25 46.1 °F /  7.8 °C 33.4 °F /  0.8 °C 30.09in /  1018.8hPa SE 3.0mph /  4.8km/h 5.0mph /  8km/h 61% 0.00in /  0mm
21:30 45.5 °F /  7.5 °C 33.2 °F /  0.7 °C 30.09in /  1018.8hPa SE 4.0mph /  6.4km/h 6.0mph /  9.7km/h 62% 0.00in /  0mm
21:35 45.2 °F /  7.3 °C 33.4 °F /  0.8 °C 30.10in /  1019.2hPa SE 2.0mph /  3.2km/h 5.0mph /  8km/h 63% 0.00in /  0mm
21:40 44.9 °F /  7.2 °C 33.5 °F /  0.8 °C 30.10in /  1019.2hPa SE 3.0mph /  4.8km/h 5.0mph /  8km/h 64% 0.00in /  0mm
21:45 45.4 °F /  7.4 °C 33.6 °F /  0.9 °C 30.10in /  1019.2hPa SE 5.0mph /  8km/h 6.0mph /  9.7km/h 63% 0.00in /  0mm
21:50 45.6 °F /  7.6 °C 33.3 °F /  0.7 °C 30.10in /  1019.2hPa SE 4.0mph /  6.4km/h 6.0mph /  9.7km/h 62% 0.00in /  0mm
21:55 45.5 °F /  7.5 °C 33.7 °F /  0.9 °C 30.10in /  1019.2hPa SE 6.0mph /  9.7km/h 7.0mph /  11.3km/h 63% 0.00in /  0mm
22:00 45.5 °F /  7.5 °C 33.7 °F /  0.9 °C 30.10in /  1019.2hPa SSE 3.0mph /  4.8km/h 7.0mph /  11.3km/h 63% 0.00in /  0mm
22:05 44.9 °F /  7.2 °C 33.5 °F /  0.8 °C 30.09in /  1018.8hPa SE 5.0mph /  8km/h 5.0mph /  8km/h 64% 0.00in /  0mm
22:10 44.5 °F /  6.9 °C 33.5 °F /  0.8 °C 30.09in /  1018.8hPa SSE 5.0mph /  8km/h 6.0mph /  9.7km/h 65% 0.00in /  0mm
22:15 44.5 °F /  6.9 °C 33.9 °F /  1.1 °C 30.09in /  1018.8hPa SSE 6.0mph /  9.7km/h 7.0mph /  11.3km/h 66% 0.00in /  0mm
22:20 44.5 °F /  6.9 °C 33.9 °F /  1.1 °C 30.09in /  1018.8hPa SSE 5.0mph /  8km/h 8.0mph /  12.9km/h 66% 0.00in /  0mm
22:25 44.6 °F /  7 °C 34.3 °F /  1.3 °C 30.09in /  1018.8hPa SE 7.0mph /  11.3km/h 9.0mph /  14.5km/h 67% 0.00in /  0mm
22:30 45.0 °F /  7.2 °C 34.3 °F /  1.3 °C 30.09in /  1018.8hPa South 3.0mph /  4.8km/h 7.0mph /  11.3km/h 66% 0.00in /  0mm
22:35 45.0 °F /  7.2 °C 34.3 °F /  1.3 °C 30.09in /  1018.8hPa SSE 7.0mph /  11.3km/h 7.0mph /  11.3km/h 66% 0.00in /  0mm
22:40 45.2 °F /  7.3 °C 34.5 °F /  1.4 °C 30.09in /  1018.8hPa SSE 6.0mph /  9.7km/h 9.0mph /  14.5km/h 66% 0.00in /  0mm
22:45 45.2 °F /  7.3 °C 34.5 °F /  1.4 °C 30.10in /  1019.2hPa SSE 3.0mph /  4.8km/h 6.0mph /  9.7km/h 66% 0.00in /  0mm
22:50 45.3 °F /  7.4 °C 34.6 °F /  1.4 °C 30.10in /  1019.2hPa SSE 4.0mph /  6.4km/h 6.0mph /  9.7km/h 66% 0.00in /  0mm
22:55 45.1 °F /  7.3 °C 34.8 °F /  1.6 °C 30.10in /  1019.2hPa SSE 5.0mph /  8km/h 7.0mph /  11.3km/h 67% 0.00in /  0mm
23:00 44.9 °F /  7.2 °C 34.6 °F /  1.4 °C 30.09in /  1018.8hPa SE 6.0mph /  9.7km/h 8.0mph /  12.9km/h 67% 0.00in /  0mm
23:05 44.9 °F /  7.2 °C 35.0 °F /  1.7 °C 30.09in /  1018.8hPa SSE 5.0mph /  8km/h 10.0mph /  16.1km/h 68% 0.00in /  0mm
23:10 45.0 °F /  7.2 °C 35.1 °F /  1.7 °C 30.09in /  1018.8hPa SSE 6.0mph /  9.7km/h 9.0mph /  14.5km/h 68% 0.00in /  0mm
23:15 45.2 °F /  7.3 °C 35.3 °F /  1.8 °C 30.09in /  1018.8hPa South 9.0mph /  14.5km/h 11.0mph /  17.7km/h 68% 0.00in /  0mm
23:20 45.4 °F /  7.4 °C 35.5 °F /  1.9 °C 30.09in /  1018.8hPa SSE 7.0mph /  11.3km/h 9.0mph /  14.5km/h 68% 0.00in /  0mm
23:25 45.4 °F /  7.4 °C 35.5 °F /  1.9 °C 30.10in /  1019.2hPa SSE 6.0mph /  9.7km/h 7.0mph /  11.3km/h 68% 0.00in /  0mm
23:30 45.3 °F /  7.4 °C 35.7 °F /  2.1 °C 30.10in /  1019.2hPa SSE 9.0mph /  14.5km/h 9.0mph /  14.5km/h 69% 0.00in /  0mm
23:35 45.3 °F /  7.4 °C 35.7 °F /  2.1 °C 30.10in /  1019.2hPa SSE 7.0mph /  11.3km/h 9.0mph /  14.5km/h 69% 0.00in /  0mm
23:40 45.3 °F /  7.4 °C 35.7 °F /  2.1 °C 30.11in /  1019.5hPa SE 4.0mph /  6.4km/h 8.0mph /  12.9km/h 69% 0.00in /  0mm
23:45 45.2 °F /  7.3 °C 36.0 °F /  2.2 °C 30.11in /  1019.5hPa SSE 4.0mph /  6.4km/h 6.0mph /  9.7km/h 70% 0.00in /  0mm
23:50 45.3 °F /  7.4 °C 36.1 °F /  2.3 °C 30.12in /  1019.9hPa SSE 3.0mph /  4.8km/h 5.0mph /  8km/h 70% 0.00in /  0mm
23:55 45.4 °F /  7.4 °C 36.2 °F /  2.3 °C 30.12in /  1019.9hPa SSE 4.0mph /  6.4km/h 7.0mph /  11.3km/h 70% 0.00in /  0mm
Compliments of Weather Underground